Time;durP1;ratioP1;P1;durP2;ratioP2;P2;SDS_P1;SDS_P2;PMS_P1;PMS_P2;Temp;Humidity;BMP_temperature;BMP_pressure;BME280_temperature;BME280_humidity;BME280_pressure;Samples;Min_cycle;Max_cycle;Signal;HPM_P1;HPM_P2
2022/01/24 00:03:07;;;;;;;4.75;2.88;;;;;;;;;;8337367;28;20142;-64
2022/01/24 00:07:07;;;;;;;3.47;2.57;;;;;;;;;;8341604;28;20029;-64
2022/01/24 00:11:14;;;;;;;3.63;2.75;;;;;;;;;;8341650;28;20353;-64
2022/01/24 00:15:34;;;;;;;3.72;3.00;;;;;;;;;;8338154;28;20024;-64
2022/01/24 00:28:13;;;;;;;3.10;2.60;;;;;;;;;;8340489;28;20097;-64
2022/01/24 00:32:13;;;;;;;4.43;2.83;;;;;;;;;;8339534;28;20068;-64
2022/01/24 00:36:13;;;;;;;3.58;3.00;;;;;;;;;;8337794;28;20079;-64
2022/01/24 00:40:13;;;;;;;4.18;2.90;;;;;;;;;;8339381;28;20481;-64
2022/01/24 00:53:15;;;;;;;3.20;2.67;;;;;;;;;;8338330;28;20039;-64
2022/01/24 00:57:15;;;;;;;3.58;2.60;;;;;;;;;;8335932;28;20446;-64
2022/01/24 01:01:15;;;;;;;3.90;3.00;;;;;;;;;;8336120;28;20031;-64
2022/01/24 01:18:15;;;;;;;2.40;2.10;;;;;;;;;;8335425;28;20628;-64
2022/01/24 01:22:15;;;;;;;4.80;2.90;;;;;;;;;;8335602;28;20097;-63
2022/01/24 01:26:26;;;;;;;3.03;2.50;;;;;;;;;;8333318;28;20027;-64
2022/01/24 01:30:36;;;;;;;4.93;2.58;;;;;;;;;;8335713;28;20664;-63
2022/01/24 01:52:27;;;;;;;4.90;2.70;;;;;;;;;;8336507;28;20492;-63
2022/01/24 01:56:28;;;;;;;3.58;2.70;;;;;;;;;;8335319;28;20387;-64
2022/01/24 02:00:28;;;;;;;4.35;2.92;;;;;;;;;;8337715;28;20154;-63
2022/01/24 02:04:28;;;;;;;3.10;2.58;;;;;;;;;;8334636;28;20029;-63
2022/01/24 02:08:30;;;;;;;3.47;2.78;;;;;;;;;;8335622;28;20028;-63
2022/01/24 02:12:30;;;;;;;5.28;2.85;;;;;;;;;;8334731;28;20025;-63
2022/01/24 02:16:44;;;;;;;4.05;2.67;;;;;;;;;;8336346;28;20401;-63
2022/01/24 02:25:11;;;;;;;4.15;3.10;;;;;;;;;;8336707;28;20047;-63
2022/01/24 02:29:23;;;;;;;3.53;2.88;;;;;;;;;;8335597;28;20127;-63
2022/01/24 02:33:23;;;;;;;3.13;2.50;;;;;;;;;;8335368;28;20345;-63
2022/01/24 02:37:25;;;;;;;4.30;2.90;;;;;;;;;;8336483;28;20233;-63
2022/01/24 02:49:44;;;;;;;2.70;2.50;;;;;;;;;;8336461;28;20458;-63
2022/01/24 02:53:44;;;;;;;3.45;2.70;;;;;;;;;;8335289;28;20078;-63
2022/01/24 02:57:44;;;;;;;3.97;2.90;;;;;;;;;;8335986;28;20066;-63
2022/01/24 03:01:45;;;;;;;3.47;2.72;;;;;;;;;;8337093;28;20040;-63
2022/01/24 03:05:45;;;;;;;5.50;3.28;;;;;;;;;;8334200;28;20374;-63
2022/01/24 03:09:46;;;;;;;3.17;2.80;;;;;;;;;;8336121;28;20177;-63
2022/01/24 03:13:46;;;;;;;3.17;2.60;;;;;;;;;;8334505;28;20283;-63
2022/01/24 03:17:46;;;;;;;4.32;3.15;;;;;;;;;;8336950;28;20033;-63
2022/01/24 03:21:46;;;;;;;5.45;2.92;;;;;;;;;;8342817;28;20044;-63
2022/01/24 03:25:47;;;;;;;3.92;2.97;;;;;;;;;;8340344;28;20040;-63
2022/01/24 03:29:47;;;;;;;4.93;3.42;;;;;;;;;;8341490;28;20093;-63
2022/01/24 03:33:47;;;;;;;2.67;2.38;;;;;;;;;;8339006;28;20060;-63
2022/01/24 03:37:47;;;;;;;4.75;3.65;;;;;;;;;;8340569;28;20517;-63
2022/01/24 03:41:48;;;;;;;6.03;3.45;;;;;;;;;;8342957;28;20130;-63
2022/01/24 03:46:09;;;;;;;4.97;3.50;;;;;;;;;;8338979;28;20044;-63
2022/01/24 03:50:11;;;;;;;4.85;3.70;;;;;;;;;;8342141;28;20290;-63
2022/01/24 03:54:11;;;;;;;4.95;3.67;;;;;;;;;;8341836;28;20024;-63
2022/01/24 03:58:12;;;;;;;8.80;3.78;;;;;;;;;;8339914;28;20157;-63
2022/01/24 04:02:12;;;;;;;6.18;3.90;;;;;;;;;;8339321;28;20061;-63
2022/01/24 04:06:14;;;;;;;8.90;4.15;;;;;;;;;;8337610;28;20425;-63
2022/01/24 04:10:18;;;;;;;6.93;3.72;;;;;;;;;;8339736;28;20097;-63
2022/01/24 04:22:30;;;;;;;6.00;4.20;;;;;;;;;;8341554;28;20020;-63
2022/01/24 04:26:31;;;;;;;7.35;4.00;;;;;;;;;;8340773;28;20783;-63
2022/01/24 04:30:32;;;;;;;5.22;3.60;;;;;;;;;;8339289;28;20044;-63
2022/01/24 04:34:32;;;;;;;5.05;3.50;;;;;;;;;;8340176;28;20437;-63
2022/01/24 04:38:32;;;;;;;3.47;3.17;;;;;;;;;;8338147;28;20020;-63
2022/01/24 04:42:46;;;;;;;3.97;3.25;;;;;;;;;;8338106;28;20289;-63
2022/01/24 04:54:58;;;;;;;3.50;3.20;;;;;;;;;;8338039;28;20040;-63
2022/01/24 04:58:59;;;;;;;7.78;3.10;;;;;;;;;;8338883;28;20442;-63
2022/01/24 05:02:59;;;;;;;5.77;3.00;;;;;;;;;;8338154;28;20292;-63
2022/01/24 05:06:59;;;;;;;6.53;4.07;;;;;;;;;;8337339;28;20278;-63
2022/01/24 05:11:06;;;;;;;6.90;3.43;;;;;;;;;;8337942;28;20728;-63
2022/01/24 05:23:45;;;;;;;3.20;2.90;;;;;;;;;;8339017;28;20055;-63
2022/01/24 05:27:45;;;;;;;4.10;2.78;;;;;;;;;;8335741;28;20025;-63
2022/01/24 05:31:46;;;;;;;3.38;3.08;;;;;;;;;;8337051;28;20538;-63
2022/01/24 05:35:46;;;;;;;4.70;3.05;;;;;;;;;;8335152;28;20020;-63
2022/01/24 05:39:46;;;;;;;5.82;3.92;;;;;;;;;;8337182;28;20028;-63
2022/01/24 05:43:46;;;;;;;9.35;5.55;;;;;;;;;;8337936;28;20036;-63
2022/01/24 05:47:47;;;;;;;9.25;5.28;;;;;;;;;;8336627;28;20505;-63
2022/01/24 05:51:47;;;;;;;17.70;8.38;;;;;;;;;;8336774;28;20115;-63
2022/01/24 05:55:47;;;;;;;26.58;10.32;;;;;;;;;;8337175;28;20103;-63
2022/01/24 05:59:47;;;;;;;23.02;8.95;;;;;;;;;;8336636;28;20041;-63
2022/01/24 06:03:47;;;;;;;18.50;7.82;;;;;;;;;;8335451;28;20045;-63
2022/01/24 06:07:49;;;;;;;19.08;8.85;;;;;;;;;;8336817;28;20029;-63
2022/01/24 06:11:51;;;;;;;15.43;6.72;;;;;;;;;;8334399;28;20499;-63
2022/01/24 06:15:51;;;;;;;15.18;7.65;;;;;;;;;;8337605;28;20115;-63
2022/01/24 06:19:52;;;;;;;17.30;9.30;;;;;;;;;;8336934;28;20024;-63
2022/01/24 06:23:52;;;;;;;15.02;7.63;;;;;;;;;;8337021;28;20041;-63
2022/01/24 06:27:52;;;;;;;12.32;7.13;;;;;;;;;;8335714;28;20470;-63
2022/01/24 06:31:52;;;;;;;10.30;5.95;;;;;;;;;;8336550;28;20119;-63
2022/01/24 06:35:52;;;;;;;9.00;4.78;;;;;;;;;;8334944;28;20507;-63
2022/01/24 06:39:54;;;;;;;9.95;5.10;;;;;;;;;;8333199;28;20511;-63
2022/01/24 06:43:54;;;;;;;12.52;7.78;;;;;;;;;;8335735;28;20702;-63
2022/01/24 06:47:54;;;;;;;9.18;5.38;;;;;;;;;;8334940;28;20120;-63
2022/01/24 06:51:54;;;;;;;8.32;5.68;;;;;;;;;;8338412;28;20029;-63
2022/01/24 06:55:54;;;;;;;8.30;5.07;;;;;;;;;;8343285;28;20285;-63
2022/01/24 06:59:55;;;;;;;7.38;5.07;;;;;;;;;;8341439;28;20040;-63
2022/01/24 07:03:55;;;;;;;6.85;4.43;;;;;;;;;;8340517;28;20136;-62
2022/01/24 07:07:57;;;;;;;7.18;4.00;;;;;;;;;;8342729;28;20024;-63
2022/01/24 07:11:58;;;;;;;7.30;4.70;;;;;;;;;;8342716;28;20028;-63
2022/01/24 07:16:04;;;;;;;7.18;4.18;;;;;;;;;;8341837;28;20055;-63
2022/01/24 07:20:05;;;;;;;5.25;4.05;;;;;;;;;;8343675;28;20064;-63
2022/01/24 07:24:05;;;;;;;6.75;4.38;;;;;;;;;;8339008;28;20454;-63
2022/01/24 07:28:05;;;;;;;5.50;3.80;;;;;;;;;;8341526;28;20025;-63
2022/01/24 07:32:06;;;;;;;5.95;4.50;;;;;;;;;;8341847;28;20040;-63
2022/01/24 07:36:06;;;;;;;5.97;4.05;;;;;;;;;;8339958;28;20025;-63
2022/01/24 07:40:09;;;;;;;7.05;4.18;;;;;;;;;;8341579;28;20035;-63
2022/01/24 07:44:09;;;;;;;5.68;3.67;;;;;;;;;;8342540;28;20028;-63
2022/01/24 07:48:10;;;;;;;5.90;4.50;;;;;;;;;;8340667;28;20036;-63
2022/01/24 07:52:10;;;;;;;8.13;4.65;;;;;;;;;;8342571;28;20044;-63
2022/01/24 07:56:11;;;;;;;8.90;5.00;;;;;;;;;;8341263;28;20024;-63
2022/01/24 08:00:12;;;;;;;9.52;5.35;;;;;;;;;;8339779;28;20059;-63
2022/01/24 08:04:12;;;;;;;10.48;5.07;;;;;;;;;;8339679;28;20565;-63
2022/01/24 08:08:12;;;;;;;9.60;5.07;;;;;;;;;;8340679;28;20040;-63
2022/01/24 08:12:12;;;;;;;6.72;4.72;;;;;;;;;;8341998;28;20143;-63
2022/01/24 08:16:13;;;;;;;8.90;4.80;;;;;;;;;;8339988;28;20355;-63
2022/01/24 08:20:14;;;;;;;6.68;4.82;;;;;;;;;;8341376;28;20110;-63
2022/01/24 08:24:14;;;;;;;7.05;5.35;;;;;;;;;;8339701;28;20545;-63
2022/01/24 08:28:14;;;;;;;11.30;6.35;;;;;;;;;;8341455;28;20028;-63
2022/01/24 08:32:15;;;;;;;14.93;8.73;;;;;;;;;;8339639;28;20460;-63
2022/01/24 08:36:16;;;;;;;12.57;7.55;;;;;;;;;;8339189;28;20115;-64
2022/01/24 08:40:22;;;;;;;9.40;6.25;;;;;;;;;;8338613;28;20128;-63
2022/01/24 08:48:22;;;;;;;9.50;5.28;;;;;;;;;;8337997;28;20067;-63
2022/01/24 08:52:23;;;;;;;6.45;5.03;;;;;;;;;;8338002;28;20379;-64
2022/01/24 08:56:25;;;;;;;7.47;5.57;;;;;;;;;;8338071;28;20539;-63
2022/01/24 09:00:25;;;;;;;8.75;5.30;;;;;;;;;;8338040;28;20410;-63
2022/01/24 09:04:26;;;;;;;11.30;4.93;;;;;;;;;;8337379;28;20033;-64
2022/01/24 09:08:26;;;;;;;9.73;4.85;;;;;;;;;;8339797;28;20020;-64
2022/01/24 09:12:26;;;;;;;7.05;4.88;;;;;;;;;;8338765;28;20020;-63
2022/01/24 09:16:26;;;;;;;10.65;5.05;;;;;;;;;;8337996;28;20033;-64
2022/01/24 09:20:27;;;;;;;6.60;4.72;;;;;;;;;;8338363;28;20024;-63
2022/01/24 09:24:27;;;;;;;6.40;4.57;;;;;;;;;;8337122;28;20024;-64
2022/01/24 09:28:27;;;;;;;5.23;4.30;;;;;;;;;;8337552;28;20020;-64
2022/01/24 09:32:28;;;;;;;6.55;4.32;;;;;;;;;;8337567;28;20805;-64
2022/01/24 09:36:28;;;;;;;6.20;4.30;;;;;;;;;;8337301;28;20064;-63
2022/01/24 09:40:28;;;;;;;8.35;4.63;;;;;;;;;;8337810;28;20396;-64
2022/01/24 09:44:28;;;;;;;7.03;4.90;;;;;;;;;;8338038;28;20480;-64
2022/01/24 09:48:29;;;;;;;7.47;4.63;;;;;;;;;;8336278;28;20044;-63
2022/01/24 09:52:29;;;;;;;6.18;4.65;;;;;;;;;;8337043;28;20055;-63
2022/01/24 09:56:29;;;;;;;5.82;4.32;;;;;;;;;;8336668;28;20021;-64
2022/01/24 10:00:29;;;;;;;6.40;4.30;;;;;;;;;;8337283;28;20543;-63
2022/01/24 10:04:30;;;;;;;5.65;4.07;;;;;;;;;;8337533;28;20478;-63
2022/01/24 10:08:30;;;;;;;4.37;3.87;;;;;;;;;;8333127;28;20032;-64
2022/01/24 10:16:48;;;;;;;4.60;3.58;;;;;;;;;;8337531;28;20489;-64
2022/01/24 10:20:48;;;;;;;4.90;3.85;;;;;;;;;;8336636;28;20548;-64
2022/01/24 10:24:49;;;;;;;7.67;4.37;;;;;;;;;;8330998;28;20592;-64
2022/01/24 10:28:49;;;;;;;7.03;4.38;;;;;;;;;;8342845;28;20287;-64
2022/01/24 10:32:52;;;;;;;6.30;4.33;;;;;;;;;;8341328;28;20611;-64
2022/01/24 10:36:53;;;;;;;5.15;3.53;;;;;;;;;;8342264;28;20273;-64
2022/01/24 10:45:18;;;;;;;6.85;4.57;;;;;;;;;;8341824;28;20031;-64
2022/01/24 10:49:30;;;;;;;5.47;4.85;;;;;;;;;;8341842;28;20032;-64
2022/01/24 10:53:34;;;;;;;5.70;4.75;;;;;;;;;;8343114;28;20562;-65
2022/01/24 10:57:34;;;;;;;6.28;4.90;;;;;;;;;;8342180;28;20078;-65
2022/01/24 11:01:34;;;;;;;6.57;5.28;;;;;;;;;;8342061;28;20086;-64
2022/01/24 11:05:36;;;;;;;8.55;6.07;;;;;;;;;;8339208;28;20277;-64
2022/01/24 11:09:40;;;;;;;10.07;6.50;;;;;;;;;;8342144;28;20029;-64
2022/01/24 11:13:43;;;;;;;10.77;8.00;;;;;;;;;;8342232;28;20064;-64
2022/01/24 11:17:43;;;;;;;10.23;8.23;;;;;;;;;;8341487;28;20033;-64
2022/01/24 11:21:44;;;;;;;12.52;9.25;;;;;;;;;;8341125;28;20127;-64
2022/01/24 11:25:47;;;;;;;9.73;7.78;;;;;;;;;;8342129;28;20453;-65
2022/01/24 11:29:49;;;;;;;10.73;7.32;;;;;;;;;;8340825;28;20542;-64
2022/01/24 11:33:54;;;;;;;7.95;7.10;;;;;;;;;;8340965;28;20078;-64
2022/01/24 11:37:56;;;;;;;8.77;6.90;;;;;;;;;;8337837;28;20094;-65
2022/01/24 11:41:56;;;;;;;9.27;7.32;;;;;;;;;;8339425;28;20044;-64
2022/01/24 11:46:03;;;;;;;10.70;8.13;;;;;;;;;;8339438;28;20356;-65
2022/01/24 11:50:22;;;;;;;10.00;7.88;;;;;;;;;;8339127;28;20028;-64
2022/01/24 11:58:44;;;;;;;8.13;7.03;;;;;;;;;;8044764;28;20420;-64
2022/01/24 12:02:52;;;;;;;8.57;7.07;;;;;;;;;;7615429;28;20553;-65
2022/01/24 12:07:12;;;;;;;8.05;6.25;;;;;;;;;;7455903;28;20636;-64
2022/01/24 12:11:14;;;;;;;7.47;6.22;;;;;;;;;;7472033;28;20590;-64
2022/01/24 12:15:33;;;;;;;8.30;6.65;;;;;;;;;;7757163;28;20565;-64
2022/01/24 12:19:35;;;;;;;10.27;7.15;;;;;;;;;;7454980;28;20416;-64
2022/01/24 12:23:45;;;;;;;13.90;7.57;;;;;;;;;;7438296;28;20496;-64
2022/01/24 12:28:04;;;;;;;9.32;6.60;;;;;;;;;;7435970;28;20647;-64
2022/01/24 12:32:19;;;;;;;11.02;7.20;;;;;;;;;;7439283;28;21133;-64
2022/01/24 12:36:47;;;;;;;9.63;7.22;;;;;;;;;;7428004;28;20701;-64
2022/01/24 12:40:48;;;;;;;9.43;7.05;;;;;;;;;;7439021;28;20577;-64
2022/01/24 12:48:52;;;;;;;10.98;6.82;;;;;;;;;;7460286;28;21201;-64
2022/01/24 12:52:53;;;;;;;9.27;6.63;;;;;;;;;;7443217;28;20562;-64
2022/01/24 12:56:57;;;;;;;7.82;6.15;;;;;;;;;;7444126;28;20811;-65
2022/01/24 13:00:57;;;;;;;10.40;7.38;;;;;;;;;;7437424;28;20033;-64
2022/01/24 13:05:05;;;;;;;7.90;6.53;;;;;;;;;;7418892;28;21072;-65
2022/01/24 13:09:05;;;;;;;9.75;7.75;;;;;;;;;;7428166;28;20990;-64
2022/01/24 13:13:10;;;;;;;8.65;6.25;;;;;;;;;;7447127;28;20559;-65
2022/01/24 13:21:31;;;;;;;12.93;7.55;;;;;;;;;;7441466;28;20650;-64
2022/01/24 13:25:32;;;;;;;11.90;7.50;;;;;;;;;;7459098;28;20626;-65
2022/01/24 13:29:36;;;;;;;11.30;7.53;;;;;;;;;;7433388;28;20988;-64
2022/01/24 13:33:41;;;;;;;9.15;7.18;;;;;;;;;;7430593;28;20564;-64
2022/01/24 13:37:41;;;;;;;;;;;;;;;;;;7501066;28;21104;-64
2022/01/24 13:41:44;;;;;;;11.90;7.95;;;;;;;;;;7445743;28;20334;-64
2022/01/24 13:45:45;;;;;;;10.57;8.07;;;;;;;;;;7481746;28;20599;-64
2022/01/24 13:49:46;;;;;;;10.68;7.82;;;;;;;;;;7446568;28;21056;-65
2022/01/24 13:53:56;;;;;;;11.00;7.30;;;;;;;;;;7444062;28;20746;-64
2022/01/24 13:57:56;;;;;;;8.73;6.65;;;;;;;;;;7411940;28;20474;-64
2022/01/24 14:01:59;;;;;;;10.20;6.40;;;;;;;;;;7411303;28;20635;-64
2022/01/24 14:06:16;;;;;;;8.52;6.15;;;;;;;;;;7405438;28;20569;-64
2022/01/24 14:10:16;;;;;;;10.27;6.40;;;;;;;;;;7434651;28;20633;-64
2022/01/24 14:14:25;;;;;;;10.90;6.22;;;;;;;;;;7425010;28;20636;-65
2022/01/24 14:18:29;;;;;;;7.57;6.07;;;;;;;;;;7425900;28;21042;-64
2022/01/24 14:22:40;;;;;;;8.90;6.05;;;;;;;;;;7437486;28;20896;-64
2022/01/24 14:26:50;;;;;;;8.23;5.85;;;;;;;;;;7425744;28;20714;-64
2022/01/24 14:30:51;;;;;;;11.07;6.20;;;;;;;;;;7440754;28;20587;-64
2022/01/24 14:35:02;;;;;;;7.38;5.40;;;;;;;;;;7445080;28;20564;-64
2022/01/24 14:39:06;;;;;;;6.85;5.85;;;;;;;;;;7441892;28;20025;-64
2022/01/24 14:47:26;;;;;;;9.02;5.75;;;;;;;;;;7428069;28;20072;-65
2022/01/24 14:51:29;;;;;;;6.65;5.32;;;;;;;;;;7417327;28;20024;-65
2022/01/24 14:55:29;;;;;;;13.60;5.90;;;;;;;;;;7422110;28;20525;-65
2022/01/24 14:59:30;;;;;;;7.20;5.43;;;;;;;;;;7413763;28;21419;-65
2022/01/24 15:03:30;;;;;;;11.13;5.78;;;;;;;;;;7606427;28;20513;-64
2022/01/24 15:07:31;;;;;;;8.55;5.40;;;;;;;;;;8338036;28;20028;-64
2022/01/24 15:11:34;;;;;;;7.88;5.07;;;;;;;;;;7727468;28;20571;-64
2022/01/24 15:15:39;;;;;;;6.10;4.53;;;;;;;;;;7452227;28;20588;-65
2022/01/24 15:28:18;;;;;;;5.72;4.32;;;;;;;;;;8337624;28;20032;-64
2022/01/24 15:32:18;;;;;;;5.55;4.60;;;;;;;;;;8337146;28;20037;-64
2022/01/24 15:36:19;;;;;;;7.10;4.43;;;;;;;;;;8265272;28;20750;-64
2022/01/24 15:40:20;;;;;;;7.65;4.60;;;;;;;;;;7649311;28;20567;-64
2022/01/24 15:48:30;;;;;;;5.07;3.63;;;;;;;;;;7458422;28;20591;-64
2022/01/24 15:52:30;;;;;;;6.45;4.07;;;;;;;;;;7463601;28;20510;-64
2022/01/24 16:00:32;;;;;;;5.95;3.83;;;;;;;;;;7464345;28;20563;-64
2022/01/24 16:04:33;;;;;;;4.63;3.53;;;;;;;;;;7472412;28;21094;-64
2022/01/24 16:08:33;;;;;;;5.07;3.53;;;;;;;;;;7474992;28;20534;-64
2022/01/24 16:12:33;;;;;;;4.55;3.67;;;;;;;;;;7455989;28;20455;-65
2022/01/24 16:16:34;;;;;;;5.68;3.40;;;;;;;;;;7429782;28;20653;-64
2022/01/24 16:20:40;;;;;;;7.55;3.85;;;;;;;;;;7450184;28;20563;-64
2022/01/24 16:28:46;;;;;;;3.80;3.40;;;;;;;;;;7424829;28;20423;-64
2022/01/24 16:32:46;;;;;;;6.97;3.75;;;;;;;;;;7425385;28;20653;-64
2022/01/24 16:36:47;;;;;;;4.20;3.63;;;;;;;;;;7429353;28;20664;-64
2022/01/24 16:40:51;;;;;;;5.90;3.80;;;;;;;;;;7457845;28;20616;-64
2022/01/24 16:45:01;;;;;;;4.63;3.30;;;;;;;;;;7442823;28;20416;-65
2022/01/24 16:49:02;;;;;;;4.63;3.05;;;;;;;;;;7424558;28;20441;-64
2022/01/24 16:53:02;;;;;;;8.10;3.30;;;;;;;;;;7428455;28;20246;-64
2022/01/24 16:57:03;;;;;;;5.53;3.55;;;;;;;;;;7415877;28;20502;-65
2022/01/24 17:01:04;;;;;;;4.10;3.70;;;;;;;;;;7423328;28;20447;-64
2022/01/24 17:05:04;;;;;;;6.05;4.03;;;;;;;;;;7417252;28;20632;-64
2022/01/24 17:09:08;;;;;;;5.38;3.50;;;;;;;;;;7417152;28;20500;-64
2022/01/24 17:13:10;;;;;;;5.85;4.00;;;;;;;;;;7391915;28;20470;-64
2022/01/24 17:17:11;;;;;;;9.13;5.95;;;;;;;;;;7394902;28;20508;-64
2022/01/24 17:21:12;;;;;;;12.30;6.55;;;;;;;;;;7402820;28;20541;-64
2022/01/24 17:25:13;;;;;;;12.70;7.22;;;;;;;;;;7390493;28;20474;-63
2022/01/24 17:29:13;;;;;;;10.80;6.82;;;;;;;;;;7402524;28;20483;-64
2022/01/24 17:33:18;;;;;;;10.73;6.47;;;;;;;;;;7416530;28;20637;-64
2022/01/24 17:37:18;;;;;;;9.00;5.93;;;;;;;;;;7452981;28;20975;-64
2022/01/24 17:41:19;;;;;;;9.85;5.53;;;;;;;;;;7417096;28;20607;-64
2022/01/24 17:45:20;;;;;;;7.80;6.03;;;;;;;;;;7430182;28;20452;-64
2022/01/24 17:49:20;;;;;;;9.90;5.35;;;;;;;;;;7419916;28;20572;-64
2022/01/24 17:53:22;;;;;;;8.27;4.78;;;;;;;;;;7431339;28;20572;-64
2022/01/24 17:57:22;;;;;;;7.78;5.07;;;;;;;;;;7405806;28;20612;-64
2022/01/24 18:01:22;;;;;;;12.32;6.85;;;;;;;;;;7422785;28;21059;-64
2022/01/24 18:05:23;;;;;;;16.90;8.13;;;;;;;;;;7426090;28;21171;-64
2022/01/24 18:09:25;;;;;;;24.17;14.20;;;;;;;;;;7432605;28;20536;-63
2022/01/24 18:13:27;;;;;;;27.15;16.75;;;;;;;;;;7411750;28;20761;-64
2022/01/24 18:17:28;;;;;;;19.05;11.70;;;;;;;;;;7422712;28;20580;-64
2022/01/24 18:21:28;;;;;;;15.30;9.10;;;;;;;;;;7424201;28;21213;-63
2022/01/24 18:25:29;;;;;;;17.40;9.82;;;;;;;;;;7411825;28;20574;-64
2022/01/24 18:29:29;;;;;;;14.02;7.78;;;;;;;;;;7431405;28;20598;-63
2022/01/24 18:33:30;;;;;;;13.52;7.20;;;;;;;;;;7413507;28;20579;-64
2022/01/24 18:37:31;;;;;;;13.00;7.22;;;;;;;;;;7427644;28;20554;-63
2022/01/24 18:41:32;;;;;;;13.23;6.47;;;;;;;;;;7424908;28;20522;-64
2022/01/24 18:45:33;;;;;;;10.57;6.15;;;;;;;;;;7447301;28;20554;-63
2022/01/24 18:49:34;;;;;;;9.18;5.80;;;;;;;;;;7461196;28;20407;-63
2022/01/24 18:53:34;;;;;;;14.82;5.75;;;;;;;;;;7455777;28;20056;-63
2022/01/24 18:57:34;;;;;;;8.13;5.20;;;;;;;;;;7439929;28;20542;-63
2022/01/24 19:01:35;;;;;;;8.05;5.40;;;;;;;;;;7436731;28;20705;-63
2022/01/24 19:05:35;;;;;;;9.02;5.13;;;;;;;;;;7445433;28;20568;-63
2022/01/24 19:09:36;;;;;;;8.75;5.75;;;;;;;;;;7455799;28;20597;-63
2022/01/24 19:13:37;;;;;;;8.18;4.88;;;;;;;;;;7425216;28;20755;-63
2022/01/24 19:17:37;;;;;;;8.23;5.43;;;;;;;;;;7429770;28;20600;-63
2022/01/24 19:25:58;;;;;;;9.55;5.90;;;;;;;;;;7425277;28;21525;-63
2022/01/24 19:29:58;;;;;;;10.85;6.50;;;;;;;;;;7415155;28;20768;-63
2022/01/24 19:33:59;;;;;;;9.60;5.82;;;;;;;;;;7429881;28;20696;-63
2022/01/24 19:37:59;;;;;;;9.32;5.70;;;;;;;;;;7432821;28;20720;-63
2022/01/24 19:41:59;;;;;;;13.40;7.72;;;;;;;;;;7456450;28;21683;-63
2022/01/24 19:46:00;;;;;;;12.43;7.45;;;;;;;;;;7438225;28;20541;-63
2022/01/24 19:50:00;;;;;;;12.40;7.63;;;;;;;;;;7434573;28;20116;-63
2022/01/24 19:54:00;;;;;;;16.02;8.57;;;;;;;;;;7450943;28;20505;-63
2022/01/24 20:02:13;;;;;;;12.40;7.30;;;;;;;;;;7409863;28;21179;-63
2022/01/24 20:06:14;;;;;;;8.65;6.13;;;;;;;;;;7426255;28;20592;-63
2022/01/24 20:10:14;;;;;;;15.43;8.80;;;;;;;;;;7450907;28;20079;-63
2022/01/24 20:14:15;;;;;;;12.50;7.60;;;;;;;;;;7487383;28;20017;-63
2022/01/24 20:18:16;;;;;;;14.80;8.20;;;;;;;;;;7477146;28;20375;-63
2022/01/24 20:22:16;;;;;;;13.90;9.10;;;;;;;;;;7480656;28;20062;-63
2022/01/24 20:26:17;;;;;;;10.80;6.35;;;;;;;;;;7463188;28;20614;-63
2022/01/24 20:30:19;;;;;;;8.18;5.97;;;;;;;;;;7434154;28;20850;-63
2022/01/24 20:34:19;;;;;;;10.65;6.57;;;;;;;;;;7403847;28;20714;-63
2022/01/24 20:38:20;;;;;;;8.82;5.85;;;;;;;;;;7413336;28;20784;-63
2022/01/24 20:42:21;;;;;;;9.23;5.70;;;;;;;;;;7408001;28;20786;-63
2022/01/24 20:46:21;;;;;;;9.82;6.03;;;;;;;;;;7411176;28;20756;-63
2022/01/24 20:50:27;;;;;;;10.15;5.97;;;;;;;;;;7408517;28;21203;-63
2022/01/24 20:54:28;;;;;;;11.23;6.45;;;;;;;;;;7433309;28;20387;-63
2022/01/24 20:58:28;;;;;;;9.52;6.00;;;;;;;;;;7430289;28;20678;-63
2022/01/24 21:02:28;;;;;;;12.15;6.80;;;;;;;;;;7431272;28;20733;-63
2022/01/24 21:06:31;;;;;;;9.98;5.97;;;;;;;;;;7434356;28;20179;-63
2022/01/24 21:10:32;;;;;;;10.55;5.82;;;;;;;;;;7434649;28;21085;-63
2022/01/24 21:14:33;;;;;;;9.38;5.90;;;;;;;;;;7428296;28;20701;-63
2022/01/24 21:18:34;;;;;;;8.25;5.82;;;;;;;;;;7421838;28;20616;-63
2022/01/24 21:22:34;;;;;;;8.45;5.10;;;;;;;;;;7417697;28;20415;-63
2022/01/24 21:26:35;;;;;;;12.40;5.22;;;;;;;;;;7407781;28;20492;-63
2022/01/24 21:30:35;;;;;;;7.13;5.45;;;;;;;;;;7426021;28;21386;-63
2022/01/24 21:38:54;;;;;;;9.38;5.75;;;;;;;;;;7424457;28;20460;-63
2022/01/24 21:42:55;;;;;;;9.00;6.05;;;;;;;;;;7425451;28;20771;-63
2022/01/24 21:46:55;;;;;;;11.48;7.88;;;;;;;;;;7434137;28;20903;-63
2022/01/24 21:50:56;;;;;;;10.45;6.72;;;;;;;;;;7416352;28;21632;-63
2022/01/24 21:54:56;;;;;;;13.15;8.20;;;;;;;;;;7409902;28;21303;-63
2022/01/24 21:58:57;;;;;;;12.93;8.40;;;;;;;;;;7446261;28;20999;-63
2022/01/24 22:02:58;;;;;;;14.60;9.27;;;;;;;;;;7433252;28;20553;-63
2022/01/24 22:07:03;;;;;;;16.00;9.80;;;;;;;;;;7406425;28;20600;-63
2022/01/24 22:11:04;;;;;;;15.52;9.20;;;;;;;;;;7408768;28;20043;-63
2022/01/24 22:15:05;;;;;;;11.65;7.43;;;;;;;;;;7420029;28;20504;-62
2022/01/24 22:19:05;;;;;;;11.57;7.35;;;;;;;;;;7443229;28;20551;-62
2022/01/24 22:27:27;;;;;;;11.48;7.25;;;;;;;;;;7424581;28;20715;-63
2022/01/24 22:31:27;;;;;;;9.03;6.57;;;;;;;;;;7443332;28;20567;-63
2022/01/24 22:35:28;;;;;;;15.20;7.05;;;;;;;;;;7418032;28;20858;-62
2022/01/24 22:39:28;;;;;;;10.73;7.28;;;;;;;;;;7409609;28;20809;-63
2022/01/24 22:43:29;;;;;;;9.98;6.68;;;;;;;;;;7416890;28;20013;-63
2022/01/24 22:47:29;;;;;;;8.88;6.10;;;;;;;;;;7408988;28;20839;-62
2022/01/24 22:51:30;;;;;;;12.40;7.03;;;;;;;;;;7416727;28;20668;-63
2022/01/24 22:55:30;;;;;;;9.98;6.63;;;;;;;;;;7415579;28;20673;-63
2022/01/24 22:59:32;;;;;;;11.40;6.63;;;;;;;;;;7415412;28;20529;-63
2022/01/24 23:03:32;;;;;;;10.32;6.63;;;;;;;;;;7392221;28;20688;-63
2022/01/24 23:07:32;;;;;;;10.40;6.83;;;;;;;;;;7413926;28;20463;-63
2022/01/24 23:11:33;;;;;;;9.77;6.88;;;;;;;;;;7404418;28;21088;-63
2022/01/24 23:19:52;;;;;;;15.50;8.70;;;;;;;;;;7417886;28;20952;-63
2022/01/24 23:23:52;;;;;;;11.80;8.35;;;;;;;;;;7400507;28;21012;-63
2022/01/24 23:28:04;;;;;;;13.35;8.13;;;;;;;;;;7407140;28;20530;-63
2022/01/24 23:32:13;;;;;;;11.35;7.95;;;;;;;;;;7403191;28;20546;-63
2022/01/24 23:44:43;;;;;;;13.40;7.45;;;;;;;;;;7410429;28;20710;-63
2022/01/24 23:48:43;;;;;;;15.02;7.50;;;;;;;;;;7412249;28;20591;-63
2022/01/24 23:52:44;;;;;;;14.63;7.72;;;;;;;;;;7406131;28;20554;-63
